sensor_id;sensor_type;location;lat;lon;timestamp;P1;durP1;ratioP1;P2;durP2;ratioP2
54201;SDS011;40108;53.152;5.844;2023-12-04T00:00:37;38.30;;;19.90;;
54201;SDS011;40108;53.152;5.844;2023-12-04T00:03:03;40.90;;;22.17;;
54201;SDS011;40108;53.152;5.844;2023-12-04T00:05:29;35.72;;;19.60;;
54201;SDS011;40108;53.152;5.844;2023-12-04T00:07:55;43.95;;;22.80;;
54201;SDS011;40108;53.152;5.844;2023-12-04T00:10:20;34.17;;;17.92;;
54201;SDS011;40108;53.152;5.844;2023-12-04T00:12:46;34.33;;;19.77;;
54201;SDS011;40108;53.152;5.844;2023-12-04T00:15:12;43.00;;;22.45;;
54201;SDS011;40108;53.152;5.844;2023-12-04T00:17:38;37.88;;;20.52;;
54201;SDS011;40108;53.152;5.844;2023-12-04T00:20:07;39.30;;;22.20;;
54201;SDS011;40108;53.152;5.844;2023-12-04T00:22:34;32.08;;;18.45;;
54201;SDS011;40108;53.152;5.844;2023-12-04T00:25:01;38.83;;;20.63;;
54201;SDS011;40108;53.152;5.844;2023-12-04T00:27:31;35.95;;;19.33;;
54201;SDS011;40108;53.152;5.844;2023-12-04T00:29:57;40.58;;;22.15;;
54201;SDS011;40108;53.152;5.844;2023-12-04T00:32:23;35.58;;;20.00;;
54201;SDS011;40108;53.152;5.844;2023-12-04T00:34:49;38.53;;;22.17;;
54201;SDS011;40108;53.152;5.844;2023-12-04T00:37:15;38.28;;;21.00;;
54201;SDS011;40108;53.152;5.844;2023-12-04T00:39:40;30.48;;;16.35;;
54201;SDS011;40108;53.152;5.844;2023-12-04T00:42:06;30.05;;;17.20;;
54201;SDS011;40108;53.152;5.844;2023-12-04T00:44:32;33.60;;;19.80;;
54201;SDS011;40108;53.152;5.844;2023-12-04T00:46:57;40.40;;;21.35;;
54201;SDS011;40108;53.152;5.844;2023-12-04T00:49:23;31.70;;;18.73;;
54201;SDS011;40108;53.152;5.844;2023-12-04T00:51:49;26.23;;;14.63;;
54201;SDS011;40108;53.152;5.844;2023-12-04T00:54:15;28.27;;;16.45;;
54201;SDS011;40108;53.152;5.844;2023-12-04T00:56:41;28.70;;;16.98;;
54201;SDS011;40108;53.152;5.844;2023-12-04T00:59:07;31.98;;;18.65;;
54201;SDS011;40108;53.152;5.844;2023-12-04T01:01:35;34.65;;;19.80;;
54201;SDS011;40108;53.152;5.844;2023-12-04T01:04:01;38.53;;;22.73;;
54201;SDS011;40108;53.152;5.844;2023-12-04T01:06:27;38.25;;;21.63;;
54201;SDS011;40108;53.152;5.844;2023-12-04T01:08:54;41.40;;;23.55;;
54201;SDS011;40108;53.152;5.844;2023-12-04T01:11:21;30.02;;;17.65;;
54201;SDS011;40108;53.152;5.844;2023-12-04T01:13:47;35.88;;;19.27;;
54201;SDS011;40108;53.152;5.844;2023-12-04T01:16:14;32.45;;;19.00;;
54201;SDS011;40108;53.152;5.844;2023-12-04T01:18:40;25.05;;;16.20;;
54201;SDS011;40108;53.152;5.844;2023-12-04T01:21:06;30.52;;;18.33;;
54201;SDS011;40108;53.152;5.844;2023-12-04T01:23:34;35.53;;;20.65;;
54201;SDS011;40108;53.152;5.844;2023-12-04T01:26:01;34.13;;;19.35;;
54201;SDS011;40108;53.152;5.844;2023-12-04T01:28:27;38.17;;;22.02;;
54201;SDS011;40108;53.152;5.844;2023-12-04T01:30:52;27.15;;;17.33;;
54201;SDS011;40108;53.152;5.844;2023-12-04T01:33:18;31.35;;;16.25;;
54201;SDS011;40108;53.152;5.844;2023-12-04T01:35:44;33.00;;;18.55;;
54201;SDS011;40108;53.152;5.844;2023-12-04T01:38:10;38.55;;;21.88;;
54201;SDS011;40108;53.152;5.844;2023-12-04T01:40:35;38.05;;;21.20;;
54201;SDS011;40108;53.152;5.844;2023-12-04T01:43:01;30.08;;;18.70;;
54201;SDS011;40108;53.152;5.844;2023-12-04T01:45:27;29.70;;;17.63;;
54201;SDS011;40108;53.152;5.844;2023-12-04T01:47:53;34.70;;;20.42;;
54201;SDS011;40108;53.152;5.844;2023-12-04T01:50:19;37.33;;;21.40;;
54201;SDS011;40108;53.152;5.844;2023-12-04T01:52:45;41.80;;;23.88;;
54201;SDS011;40108;53.152;5.844;2023-12-04T01:55:12;40.35;;;23.55;;
54201;SDS011;40108;53.152;5.844;2023-12-04T01:57:39;34.40;;;20.60;;
54201;SDS011;40108;53.152;5.844;2023-12-04T02:00:06;39.65;;;22.95;;
54201;SDS011;40108;53.152;5.844;2023-12-04T02:02:36;38.15;;;20.90;;
54201;SDS011;40108;53.152;5.844;2023-12-04T02:05:07;40.53;;;22.65;;
54201;SDS011;40108;53.152;5.844;2023-12-04T02:07:34;32.65;;;18.90;;
54201;SDS011;40108;53.152;5.844;2023-12-04T02:10:03;41.70;;;25.08;;
54201;SDS011;40108;53.152;5.844;2023-12-04T02:12:29;39.90;;;22.35;;
54201;SDS011;40108;53.152;5.844;2023-12-04T02:14:55;33.63;;;19.90;;
54201;SDS011;40108;53.152;5.844;2023-12-04T02:17:22;37.95;;;21.70;;
54201;SDS011;40108;53.152;5.844;2023-12-04T02:19:49;36.25;;;19.77;;
54201;SDS011;40108;53.152;5.844;2023-12-04T02:22:15;37.40;;;20.85;;
54201;SDS011;40108;53.152;5.844;2023-12-04T02:24:43;42.42;;;23.75;;
54201;SDS011;40108;53.152;5.844;2023-12-04T02:29:41;38.78;;;21.33;;
54201;SDS011;40108;53.152;5.844;2023-12-04T02:32:13;43.63;;;23.50;;
54201;SDS011;40108;53.152;5.844;2023-12-04T02:34:42;39.22;;;21.10;;
54201;SDS011;40108;53.152;5.844;2023-12-04T02:37:11;45.75;;;23.92;;
54201;SDS011;40108;53.152;5.844;2023-12-04T02:39:38;29.90;;;17.48;;
54201;SDS011;40108;53.152;5.844;2023-12-04T02:42:03;47.95;;;25.10;;
54201;SDS011;40108;53.152;5.844;2023-12-04T02:44:29;31.42;;;16.40;;
54201;SDS011;40108;53.152;5.844;2023-12-04T02:46:55;37.47;;;20.88;;
54201;SDS011;40108;53.152;5.844;2023-12-04T02:49:21;45.70;;;24.10;;
54201;SDS011;40108;53.152;5.844;2023-12-04T02:51:47;38.67;;;21.90;;
54201;SDS011;40108;53.152;5.844;2023-12-04T02:54:12;43.30;;;24.67;;
54201;SDS011;40108;53.152;5.844;2023-12-04T02:56:38;41.42;;;21.67;;
54201;SDS011;40108;53.152;5.844;2023-12-04T02:59:04;46.40;;;25.15;;
54201;SDS011;40108;53.152;5.844;2023-12-04T03:01:29;39.55;;;23.10;;
54201;SDS011;40108;53.152;5.844;2023-12-04T03:03:55;43.50;;;24.25;;
54201;SDS011;40108;53.152;5.844;2023-12-04T03:06:21;27.90;;;15.50;;
54201;SDS011;40108;53.152;5.844;2023-12-04T03:08:46;43.92;;;23.08;;
54201;SDS011;40108;53.152;5.844;2023-12-04T03:11:12;36.65;;;18.98;;
54201;SDS011;40108;53.152;5.844;2023-12-04T03:13:38;34.53;;;19.67;;
54201;SDS011;40108;53.152;5.844;2023-12-04T03:16:03;48.45;;;26.33;;
54201;SDS011;40108;53.152;5.844;2023-12-04T03:18:29;48.13;;;25.13;;
54201;SDS011;40108;53.152;5.844;2023-12-04T03:20:55;43.40;;;23.15;;
54201;SDS011;40108;53.152;5.844;2023-12-04T03:23:21;38.55;;;21.60;;
54201;SDS011;40108;53.152;5.844;2023-12-04T03:25:46;36.00;;;18.48;;
54201;SDS011;40108;53.152;5.844;2023-12-04T03:28:12;43.70;;;22.70;;
54201;SDS011;40108;53.152;5.844;2023-12-04T03:30:40;29.13;;;15.43;;
54201;SDS011;40108;53.152;5.844;2023-12-04T03:33:08;34.55;;;19.83;;
54201;SDS011;40108;53.152;5.844;2023-12-04T03:35:34;49.85;;;25.60;;
54201;SDS011;40108;53.152;5.844;2023-12-04T03:38:00;50.83;;;23.45;;
54201;SDS011;40108;53.152;5.844;2023-12-04T03:40:26;47.13;;;23.15;;
54201;SDS011;40108;53.152;5.844;2023-12-04T03:42:51;44.10;;;24.40;;
54201;SDS011;40108;53.152;5.844;2023-12-04T03:45:17;44.97;;;23.70;;
54201;SDS011;40108;53.152;5.844;2023-12-04T03:47:43;42.15;;;23.38;;
54201;SDS011;40108;53.152;5.844;2023-12-04T03:50:08;44.60;;;24.08;;
54201;SDS011;40108;53.152;5.844;2023-12-04T03:52:34;43.33;;;23.48;;
54201;SDS011;40108;53.152;5.844;2023-12-04T03:55:00;48.80;;;24.75;;
54201;SDS011;40108;53.152;5.844;2023-12-04T03:57:25;44.10;;;23.05;;
54201;SDS011;40108;53.152;5.844;2023-12-04T03:59:51;39.85;;;21.25;;
54201;SDS011;40108;53.152;5.844;2023-12-04T04:02:17;41.55;;;21.67;;
54201;SDS011;40108;53.152;5.844;2023-12-04T04:04:42;41.08;;;22.05;;
54201;SDS011;40108;53.152;5.844;2023-12-04T04:07:08;42.75;;;22.05;;
54201;SDS011;40108;53.152;5.844;2023-12-04T04:09:34;46.97;;;23.85;;
54201;SDS011;40108;53.152;5.844;2023-12-04T04:11:59;47.22;;;21.90;;
54201;SDS011;40108;53.152;5.844;2023-12-04T04:14:25;43.03;;;21.70;;
54201;SDS011;40108;53.152;5.844;2023-12-04T04:16:51;37.15;;;21.13;;
54201;SDS011;40108;53.152;5.844;2023-12-04T04:19:17;39.35;;;19.23;;
54201;SDS011;40108;53.152;5.844;2023-12-04T04:21:42;38.58;;;20.05;;
54201;SDS011;40108;53.152;5.844;2023-12-04T04:24:08;42.72;;;22.10;;
54201;SDS011;40108;53.152;5.844;2023-12-04T04:26:33;37.78;;;20.77;;
54201;SDS011;40108;53.152;5.844;2023-12-04T04:28:59;33.35;;;18.40;;
54201;SDS011;40108;53.152;5.844;2023-12-04T04:31:25;32.53;;;17.23;;
54201;SDS011;40108;53.152;5.844;2023-12-04T04:33:50;32.28;;;17.05;;
54201;SDS011;40108;53.152;5.844;2023-12-04T04:36:16;37.13;;;19.65;;
54201;SDS011;40108;53.152;5.844;2023-12-04T04:38:42;36.90;;;20.45;;
54201;SDS011;40108;53.152;5.844;2023-12-04T04:41:12;40.00;;;18.58;;
54201;SDS011;40108;53.152;5.844;2023-12-04T04:43:40;41.40;;;20.48;;
54201;SDS011;40108;53.152;5.844;2023-12-04T04:46:06;34.42;;;17.98;;
54201;SDS011;40108;53.152;5.844;2023-12-04T04:48:31;40.20;;;20.45;;
54201;SDS011;40108;53.152;5.844;2023-12-04T04:50:57;34.45;;;17.85;;
54201;SDS011;40108;53.152;5.844;2023-12-04T04:53:23;37.28;;;18.45;;
54201;SDS011;40108;53.152;5.844;2023-12-04T04:55:48;39.65;;;19.98;;
54201;SDS011;40108;53.152;5.844;2023-12-04T04:58:14;36.22;;;18.98;;
54201;SDS011;40108;53.152;5.844;2023-12-04T05:00:41;35.65;;;19.40;;
54201;SDS011;40108;53.152;5.844;2023-12-04T05:03:07;37.80;;;20.05;;
54201;SDS011;40108;53.152;5.844;2023-12-04T05:05:32;36.22;;;17.90;;
54201;SDS011;40108;53.152;5.844;2023-12-04T05:07:58;41.75;;;19.70;;
54201;SDS011;40108;53.152;5.844;2023-12-04T05:10:24;33.17;;;18.00;;
54201;SDS011;40108;53.152;5.844;2023-12-04T05:12:49;34.92;;;17.90;;
54201;SDS011;40108;53.152;5.844;2023-12-04T05:15:15;36.80;;;17.52;;
54201;SDS011;40108;53.152;5.844;2023-12-04T05:17:41;26.50;;;13.23;;
54201;SDS011;40108;53.152;5.844;2023-12-04T05:20:06;35.67;;;17.45;;
54201;SDS011;40108;53.152;5.844;2023-12-04T05:22:33;30.52;;;17.95;;
54201;SDS011;40108;53.152;5.844;2023-12-04T05:24:59;34.30;;;18.35;;
54201;SDS011;40108;53.152;5.844;2023-12-04T05:27:25;34.53;;;17.67;;
54201;SDS011;40108;53.152;5.844;2023-12-04T05:29:51;31.20;;;16.92;;
54201;SDS011;40108;53.152;5.844;2023-12-04T05:32:16;25.25;;;14.23;;
54201;SDS011;40108;53.152;5.844;2023-12-04T05:34:42;26.27;;;15.93;;
54201;SDS011;40108;53.152;5.844;2023-12-04T05:37:08;26.67;;;14.23;;
54201;SDS011;40108;53.152;5.844;2023-12-04T05:39:33;27.85;;;14.00;;
54201;SDS011;40108;53.152;5.844;2023-12-04T05:41:59;30.27;;;14.95;;
54201;SDS011;40108;53.152;5.844;2023-12-04T05:44:25;29.60;;;16.70;;
54201;SDS011;40108;53.152;5.844;2023-12-04T05:46:50;28.85;;;16.60;;
54201;SDS011;40108;53.152;5.844;2023-12-04T05:49:17;26.98;;;13.88;;
54201;SDS011;40108;53.152;5.844;2023-12-04T05:51:42;25.95;;;14.90;;
54201;SDS011;40108;53.152;5.844;2023-12-04T05:54:08;28.65;;;16.05;;
54201;SDS011;40108;53.152;5.844;2023-12-04T05:56:34;31.42;;;16.52;;
54201;SDS011;40108;53.152;5.844;2023-12-04T05:59:00;22.52;;;13.23;;
54201;SDS011;40108;53.152;5.844;2023-12-04T06:01:25;29.75;;;16.42;;
54201;SDS011;40108;53.152;5.844;2023-12-04T06:03:51;21.02;;;12.07;;
54201;SDS011;40108;53.152;5.844;2023-12-04T06:06:17;32.05;;;16.25;;
54201;SDS011;40108;53.152;5.844;2023-12-04T06:08:42;30.65;;;16.90;;
54201;SDS011;40108;53.152;5.844;2023-12-04T06:11:08;28.35;;;15.77;;
54201;SDS011;40108;53.152;5.844;2023-12-04T06:13:34;31.35;;;15.25;;
54201;SDS011;40108;53.152;5.844;2023-12-04T06:15:59;27.15;;;14.45;;
54201;SDS011;40108;53.152;5.844;2023-12-04T06:18:25;33.15;;;16.10;;
54201;SDS011;40108;53.152;5.844;2023-12-04T06:20:50;29.40;;;16.27;;
54201;SDS011;40108;53.152;5.844;2023-12-04T06:23:16;28.33;;;16.35;;
54201;SDS011;40108;53.152;5.844;2023-12-04T06:25:43;26.17;;;15.20;;
54201;SDS011;40108;53.152;5.844;2023-12-04T06:28:09;28.05;;;15.18;;
54201;SDS011;40108;53.152;5.844;2023-12-04T06:30:35;30.50;;;16.77;;
54201;SDS011;40108;53.152;5.844;2023-12-04T06:33:01;26.83;;;15.35;;
54201;SDS011;40108;53.152;5.844;2023-12-04T06:35:27;29.35;;;16.73;;
54201;SDS011;40108;53.152;5.844;2023-12-04T06:37:53;30.13;;;16.67;;
54201;SDS011;40108;53.152;5.844;2023-12-04T06:40:20;24.30;;;14.07;;
54201;SDS011;40108;53.152;5.844;2023-12-04T06:42:46;25.33;;;14.57;;
54201;SDS011;40108;53.152;5.844;2023-12-04T06:45:12;26.52;;;14.73;;
54201;SDS011;40108;53.152;5.844;2023-12-04T06:47:40;21.75;;;11.88;;
54201;SDS011;40108;53.152;5.844;2023-12-04T06:50:08;24.88;;;14.40;;
54201;SDS011;40108;53.152;5.844;2023-12-04T06:52:34;28.10;;;16.15;;
54201;SDS011;40108;53.152;5.844;2023-12-04T06:55:00;29.40;;;15.43;;
54201;SDS011;40108;53.152;5.844;2023-12-04T06:57:25;31.90;;;17.67;;
54201;SDS011;40108;53.152;5.844;2023-12-04T06:59:51;26.50;;;14.23;;
54201;SDS011;40108;53.152;5.844;2023-12-04T07:02:16;25.83;;;16.10;;
54201;SDS011;40108;53.152;5.844;2023-12-04T07:04:42;26.88;;;15.05;;
54201;SDS011;40108;53.152;5.844;2023-12-04T07:07:08;26.80;;;15.57;;
54201;SDS011;40108;53.152;5.844;2023-12-04T07:09:33;26.05;;;14.93;;
54201;SDS011;40108;53.152;5.844;2023-12-04T07:12:00;26.75;;;14.77;;
54201;SDS011;40108;53.152;5.844;2023-12-04T07:14:25;22.38;;;13.10;;
54201;SDS011;40108;53.152;5.844;2023-12-04T07:16:51;30.30;;;16.58;;
54201;SDS011;40108;53.152;5.844;2023-12-04T07:19:17;28.17;;;15.65;;
54201;SDS011;40108;53.152;5.844;2023-12-04T07:21:43;24.27;;;14.73;;
54201;SDS011;40108;53.152;5.844;2023-12-04T07:24:09;23.00;;;13.23;;
54201;SDS011;40108;53.152;5.844;2023-12-04T07:26:35;23.80;;;14.25;;
54201;SDS011;40108;53.152;5.844;2023-12-04T07:29:01;24.75;;;14.90;;
54201;SDS011;40108;53.152;5.844;2023-12-04T07:31:40;23.08;;;15.00;;
54201;SDS011;40108;53.152;5.844;2023-12-04T07:34:06;23.85;;;15.13;;
54201;SDS011;40108;53.152;5.844;2023-12-04T07:36:32;23.60;;;13.73;;
54201;SDS011;40108;53.152;5.844;2023-12-04T07:38:58;26.20;;;13.35;;
54201;SDS011;40108;53.152;5.844;2023-12-04T07:41:23;24.88;;;15.48;;
54201;SDS011;40108;53.152;5.844;2023-12-04T07:43:49;23.05;;;13.70;;
54201;SDS011;40108;53.152;5.844;2023-12-04T07:46:15;25.20;;;14.32;;
54201;SDS011;40108;53.152;5.844;2023-12-04T07:48:41;20.70;;;12.68;;
54201;SDS011;40108;53.152;5.844;2023-12-04T07:51:08;21.20;;;12.05;;
54201;SDS011;40108;53.152;5.844;2023-12-04T07:53:35;21.40;;;12.20;;
54201;SDS011;40108;53.152;5.844;2023-12-04T07:56:01;20.40;;;12.02;;
54201;SDS011;40108;53.152;5.844;2023-12-04T07:58:30;24.10;;;13.95;;
54201;SDS011;40108;53.152;5.844;2023-12-04T08:00:57;22.02;;;13.07;;
54201;SDS011;40108;53.152;5.844;2023-12-04T08:03:23;21.85;;;12.77;;
54201;SDS011;40108;53.152;5.844;2023-12-04T08:05:49;17.27;;;11.27;;
54201;SDS011;40108;53.152;5.844;2023-12-04T08:08:18;19.85;;;12.35;;
54201;SDS011;40108;53.152;5.844;2023-12-04T08:10:44;18.80;;;12.02;;
54201;SDS011;40108;53.152;5.844;2023-12-04T08:13:10;21.45;;;13.55;;
54201;SDS011;40108;53.152;5.844;2023-12-04T08:15:35;22.90;;;12.75;;
54201;SDS011;40108;53.152;5.844;2023-12-04T08:18:01;23.00;;;12.73;;
54201;SDS011;40108;53.152;5.844;2023-12-04T08:20:27;19.15;;;11.65;;
54201;SDS011;40108;53.152;5.844;2023-12-04T08:22:53;19.35;;;12.00;;
54201;SDS011;40108;53.152;5.844;2023-12-04T08:25:20;20.60;;;12.73;;
54201;SDS011;40108;53.152;5.844;2023-12-04T08:27:45;20.38;;;11.68;;
54201;SDS011;40108;53.152;5.844;2023-12-04T08:30:11;18.55;;;11.02;;
54201;SDS011;40108;53.152;5.844;2023-12-04T08:32:37;20.75;;;11.80;;
54201;SDS011;40108;53.152;5.844;2023-12-04T08:35:03;13.55;;;8.68;;
54201;SDS011;40108;53.152;5.844;2023-12-04T08:37:31;18.13;;;9.45;;
54201;SDS011;40108;53.152;5.844;2023-12-04T08:39:57;22.05;;;11.77;;
54201;SDS011;40108;53.152;5.844;2023-12-04T08:42:22;19.67;;;11.80;;
54201;SDS011;40108;53.152;5.844;2023-12-04T08:44:48;18.48;;;10.38;;
54201;SDS011;40108;53.152;5.844;2023-12-04T08:47:14;20.02;;;10.73;;
54201;SDS011;40108;53.152;5.844;2023-12-04T08:49:40;20.70;;;9.93;;
54201;SDS011;40108;53.152;5.844;2023-12-04T08:52:09;23.65;;;11.68;;
54201;SDS011;40108;53.152;5.844;2023-12-04T08:54:38;12.93;;;7.43;;
54201;SDS011;40108;53.152;5.844;2023-12-04T08:57:05;27.08;;;11.98;;
54201;SDS011;40108;53.152;5.844;2023-12-04T08:59:31;22.30;;;10.20;;
54201;SDS011;40108;53.152;5.844;2023-12-04T09:01:56;15.00;;;9.20;;
54201;SDS011;40108;53.152;5.844;2023-12-04T09:04:22;25.05;;;11.90;;
54201;SDS011;40108;53.152;5.844;2023-12-04T09:06:48;21.13;;;11.15;;
54201;SDS011;40108;53.152;5.844;2023-12-04T09:09:13;18.88;;;10.77;;
54201;SDS011;40108;53.152;5.844;2023-12-04T09:11:43;16.30;;;9.65;;
54201;SDS011;40108;53.152;5.844;2023-12-04T09:14:09;14.63;;;9.45;;
54201;SDS011;40108;53.152;5.844;2023-12-04T09:16:35;16.33;;;9.63;;
54201;SDS011;40108;53.152;5.844;2023-12-04T09:19:01;13.57;;;7.43;;
54201;SDS011;40108;53.152;5.844;2023-12-04T09:21:26;13.52;;;7.90;;
54201;SDS011;40108;53.152;5.844;2023-12-04T09:23:52;11.48;;;7.70;;
54201;SDS011;40108;53.152;5.844;2023-12-04T09:26:18;13.73;;;8.52;;
54201;SDS011;40108;53.152;5.844;2023-12-04T09:28:43;14.60;;;8.05;;
54201;SDS011;40108;53.152;5.844;2023-12-04T09:31:09;13.23;;;7.80;;
54201;SDS011;40108;53.152;5.844;2023-12-04T09:33:35;12.52;;;8.02;;
54201;SDS011;40108;53.152;5.844;2023-12-04T09:36:01;13.73;;;9.10;;
54201;SDS011;40108;53.152;5.844;2023-12-04T09:38:28;15.20;;;8.93;;
54201;SDS011;40108;53.152;5.844;2023-12-04T09:40:54;19.13;;;10.85;;
54201;SDS011;40108;53.152;5.844;2023-12-04T09:43:24;15.98;;;10.02;;
54201;SDS011;40108;53.152;5.844;2023-12-04T09:45:51;19.50;;;10.50;;
54201;SDS011;40108;53.152;5.844;2023-12-04T09:48:17;15.25;;;10.40;;
54201;SDS011;40108;53.152;5.844;2023-12-04T09:50:42;13.73;;;9.60;;
54201;SDS011;40108;53.152;5.844;2023-12-04T09:53:11;12.23;;;8.60;;
54201;SDS011;40108;53.152;5.844;2023-12-04T09:55:38;12.77;;;7.82;;
54201;SDS011;40108;53.152;5.844;2023-12-04T09:58:05;13.02;;;8.10;;
54201;SDS011;40108;53.152;5.844;2023-12-04T10:00:31;10.75;;;7.60;;
54201;SDS011;40108;53.152;5.844;2023-12-04T10:02:57;14.00;;;7.70;;
54201;SDS011;40108;53.152;5.844;2023-12-04T10:05:24;12.10;;;7.90;;
54201;SDS011;40108;53.152;5.844;2023-12-04T10:07:50;11.52;;;7.70;;
54201;SDS011;40108;53.152;5.844;2023-12-04T10:10:16;13.10;;;6.63;;
54201;SDS011;40108;53.152;5.844;2023-12-04T10:12:43;9.45;;;6.30;;
54201;SDS011;40108;53.152;5.844;2023-12-04T10:15:10;13.50;;;7.53;;
54201;SDS011;40108;53.152;5.844;2023-12-04T10:17:37;32.75;;;7.55;;
54201;SDS011;40108;53.152;5.844;2023-12-04T10:20:14;10.25;;;6.63;;
54201;SDS011;40108;53.152;5.844;2023-12-04T10:22:57;12.88;;;7.00;;
54201;SDS011;40108;53.152;5.844;2023-12-04T10:25:25;11.70;;;7.60;;
54201;SDS011;40108;53.152;5.844;2023-12-04T10:27:53;10.68;;;7.13;;
54201;SDS011;40108;53.152;5.844;2023-12-04T10:32:49;10.43;;;6.90;;
54201;SDS011;40108;53.152;5.844;2023-12-04T10:35:18;10.30;;;7.00;;
54201;SDS011;40108;53.152;5.844;2023-12-04T10:37:44;10.60;;;6.53;;
54201;SDS011;40108;53.152;5.844;2023-12-04T10:40:10;8.40;;;5.90;;
54201;SDS011;40108;53.152;5.844;2023-12-04T10:42:35;9.88;;;6.30;;
54201;SDS011;40108;53.152;5.844;2023-12-04T10:45:01;12.50;;;7.85;;
54201;SDS011;40108;53.152;5.844;2023-12-04T10:47:28;16.13;;;7.45;;
54201;SDS011;40108;53.152;5.844;2023-12-04T10:49:57;11.95;;;7.00;;
54201;SDS011;40108;53.152;5.844;2023-12-04T10:52:23;15.02;;;8.50;;
54201;SDS011;40108;53.152;5.844;2023-12-04T10:54:49;10.20;;;5.90;;
54201;SDS011;40108;53.152;5.844;2023-12-04T10:57:37;11.48;;;7.95;;
54201;SDS011;40108;53.152;5.844;2023-12-04T11:00:03;9.95;;;6.50;;
54201;SDS011;40108;53.152;5.844;2023-12-04T11:02:32;10.95;;;6.35;;
54201;SDS011;40108;53.152;5.844;2023-12-04T11:05:01;9.82;;;6.03;;
54201;SDS011;40108;53.152;5.844;2023-12-04T11:07:53;9.40;;;6.68;;
54201;SDS011;40108;53.152;5.844;2023-12-04T11:10:22;9.57;;;5.93;;
54201;SDS011;40108;53.152;5.844;2023-12-04T11:12:52;13.68;;;6.55;;
54201;SDS011;40108;53.152;5.844;2023-12-04T11:15:41;11.60;;;6.55;;
54201;SDS011;40108;53.152;5.844;2023-12-04T11:18:13;9.98;;;6.65;;
54201;SDS011;40108;53.152;5.844;2023-12-04T11:20:56;10.98;;;6.07;;
54201;SDS011;40108;53.152;5.844;2023-12-04T11:23:26;12.18;;;7.25;;
54201;SDS011;40108;53.152;5.844;2023-12-04T11:25:53;14.75;;;7.28;;
54201;SDS011;40108;53.152;5.844;2023-12-04T11:28:20;14.07;;;7.45;;
54201;SDS011;40108;53.152;5.844;2023-12-04T11:30:46;13.48;;;6.78;;
54201;SDS011;40108;53.152;5.844;2023-12-04T11:33:14;12.18;;;7.43;;
54201;SDS011;40108;53.152;5.844;2023-12-04T11:35:40;11.75;;;7.63;;
54201;SDS011;40108;53.152;5.844;2023-12-04T11:38:06;13.68;;;8.13;;
54201;SDS011;40108;53.152;5.844;2023-12-04T11:40:35;11.55;;;7.80;;
54201;SDS011;40108;53.152;5.844;2023-12-04T11:43:05;11.77;;;8.27;;
54201;SDS011;40108;53.152;5.844;2023-12-04T11:45:50;11.82;;;7.53;;
54201;SDS011;40108;53.152;5.844;2023-12-04T11:48:16;13.63;;;7.82;;
54201;SDS011;40108;53.152;5.844;2023-12-04T11:50:47;17.02;;;9.20;;
54201;SDS011;40108;53.152;5.844;2023-12-04T11:53:12;13.73;;;8.18;;
54201;SDS011;40108;53.152;5.844;2023-12-04T11:55:39;13.80;;;8.98;;
54201;SDS011;40108;53.152;5.844;2023-12-04T11:58:10;16.30;;;8.15;;
54201;SDS011;40108;53.152;5.844;2023-12-04T12:00:36;11.65;;;7.40;;
54201;SDS011;40108;53.152;5.844;2023-12-04T12:03:06;9.90;;;7.18;;
54201;SDS011;40108;53.152;5.844;2023-12-04T12:05:34;11.07;;;7.50;;
54201;SDS011;40108;53.152;5.844;2023-12-04T12:08:03;12.07;;;8.43;;
54201;SDS011;40108;53.152;5.844;2023-12-04T12:10:30;10.50;;;7.63;;
54201;SDS011;40108;53.152;5.844;2023-12-04T12:12:56;13.88;;;8.93;;
54201;SDS011;40108;53.152;5.844;2023-12-04T12:15:22;11.32;;;7.55;;
54201;SDS011;40108;53.152;5.844;2023-12-04T12:17:49;14.10;;;7.88;;
54201;SDS011;40108;53.152;5.844;2023-12-04T12:20:15;10.55;;;7.60;;
54201;SDS011;40108;53.152;5.844;2023-12-04T12:22:41;10.88;;;8.18;;
54201;SDS011;40108;53.152;5.844;2023-12-04T12:25:09;10.48;;;6.95;;
54201;SDS011;40108;53.152;5.844;2023-12-04T12:27:36;12.90;;;8.77;;
54201;SDS011;40108;53.152;5.844;2023-12-04T12:30:02;11.68;;;7.95;;
54201;SDS011;40108;53.152;5.844;2023-12-04T12:32:33;12.45;;;8.10;;
54201;SDS011;40108;53.152;5.844;2023-12-04T12:34:59;16.77;;;8.73;;
54201;SDS011;40108;53.152;5.844;2023-12-04T12:37:24;15.52;;;8.60;;
54201;SDS011;40108;53.152;5.844;2023-12-04T12:39:53;14.48;;;9.25;;
54201;SDS011;40108;53.152;5.844;2023-12-04T12:42:23;16.52;;;9.05;;
54201;SDS011;40108;53.152;5.844;2023-12-04T12:44:49;11.77;;;7.95;;
54201;SDS011;40108;53.152;5.844;2023-12-04T12:47:16;13.75;;;8.77;;
54201;SDS011;40108;53.152;5.844;2023-12-04T12:49:41;17.88;;;9.77;;
54201;SDS011;40108;53.152;5.844;2023-12-04T12:52:09;16.60;;;8.20;;
54201;SDS011;40108;53.152;5.844;2023-12-04T12:54:42;22.40;;;10.02;;
54201;SDS011;40108;53.152;5.844;2023-12-04T12:57:09;15.98;;;10.00;;
54201;SDS011;40108;53.152;5.844;2023-12-04T12:59:36;17.05;;;8.50;;
54201;SDS011;40108;53.152;5.844;2023-12-04T13:02:04;15.77;;;9.07;;
54201;SDS011;40108;53.152;5.844;2023-12-04T13:04:40;15.23;;;8.05;;
54201;SDS011;40108;53.152;5.844;2023-12-04T13:07:07;14.68;;;8.50;;
54201;SDS011;40108;53.152;5.844;2023-12-04T13:09:33;14.15;;;8.65;;
54201;SDS011;40108;53.152;5.844;2023-12-04T13:12:00;17.38;;;9.57;;
54201;SDS011;40108;53.152;5.844;2023-12-04T13:14:26;15.63;;;9.80;;
54201;SDS011;40108;53.152;5.844;2023-12-04T13:16:52;13.02;;;8.50;;
54201;SDS011;40108;53.152;5.844;2023-12-04T13:19:20;14.65;;;9.10;;
54201;SDS011;40108;53.152;5.844;2023-12-04T13:21:46;18.52;;;10.23;;
54201;SDS011;40108;53.152;5.844;2023-12-04T13:24:11;18.65;;;11.52;;
54201;SDS011;40108;53.152;5.844;2023-12-04T13:26:37;16.23;;;10.38;;
54201;SDS011;40108;53.152;5.844;2023-12-04T13:29:04;19.08;;;10.98;;
54201;SDS011;40108;53.152;5.844;2023-12-04T13:31:31;17.27;;;9.68;;
54201;SDS011;40108;53.152;5.844;2023-12-04T13:33:57;15.85;;;10.55;;
54201;SDS011;40108;53.152;5.844;2023-12-04T13:36:23;12.40;;;8.25;;
54201;SDS011;40108;53.152;5.844;2023-12-04T13:38:49;13.10;;;9.02;;
54201;SDS011;40108;53.152;5.844;2023-12-04T13:41:15;15.93;;;9.05;;
54201;SDS011;40108;53.152;5.844;2023-12-04T13:43:59;12.50;;;8.23;;
54201;SDS011;40108;53.152;5.844;2023-12-04T13:46:25;16.30;;;9.25;;
54201;SDS011;40108;53.152;5.844;2023-12-04T13:48:55;10.77;;;7.97;;
54201;SDS011;40108;53.152;5.844;2023-12-04T13:51:21;19.58;;;11.18;;
54201;SDS011;40108;53.152;5.844;2023-12-04T13:53:47;19.15;;;11.77;;
54201;SDS011;40108;53.152;5.844;2023-12-04T13:56:14;13.30;;;9.25;;
54201;SDS011;40108;53.152;5.844;2023-12-04T13:58:46;12.32;;;8.85;;
54201;SDS011;40108;53.152;5.844;2023-12-04T14:01:15;12.50;;;7.82;;
54201;SDS011;40108;53.152;5.844;2023-12-04T14:03:43;11.25;;;7.65;;
54201;SDS011;40108;53.152;5.844;2023-12-04T14:06:10;10.73;;;7.68;;
54201;SDS011;40108;53.152;5.844;2023-12-04T14:08:36;10.32;;;7.78;;
54201;SDS011;40108;53.152;5.844;2023-12-04T14:11:02;11.98;;;8.23;;
54201;SDS011;40108;53.152;5.844;2023-12-04T14:13:29;11.77;;;8.00;;
54201;SDS011;40108;53.152;5.844;2023-12-04T14:15:55;11.07;;;7.47;;
54201;SDS011;40108;53.152;5.844;2023-12-04T14:18:22;12.27;;;7.72;;
54201;SDS011;40108;53.152;5.844;2023-12-04T14:20:48;10.65;;;7.80;;
54201;SDS011;40108;53.152;5.844;2023-12-04T14:23:14;12.25;;;8.13;;
54201;SDS011;40108;53.152;5.844;2023-12-04T14:25:40;11.98;;;7.97;;
54201;SDS011;40108;53.152;5.844;2023-12-04T14:28:06;10.90;;;7.80;;